createdAt,value
2019-04-12T00:01:57.910Z,3.90
2019-04-12T00:04:26.523Z,3.77
2019-04-12T00:06:55.172Z,4.00
2019-04-12T00:09:23.911Z,3.50
2019-04-12T00:11:52.935Z,3.37
2019-04-12T00:14:21.568Z,3.80
2019-04-12T00:16:50.237Z,3.43
2019-04-12T00:19:18.868Z,3.70
2019-04-12T00:21:47.531Z,4.23
2019-04-12T00:24:17.233Z,3.53
2019-04-12T00:26:48.684Z,3.70
2019-04-12T00:29:17.919Z,3.20
2019-04-12T00:31:46.887Z,3.70
2019-04-12T00:34:15.528Z,4.00
2019-04-12T00:36:44.213Z,3.73
2019-04-12T00:39:12.902Z,3.47
2019-04-12T00:41:41.566Z,3.97
2019-04-12T00:44:10.209Z,3.80
2019-04-12T00:46:39.189Z,3.87
2019-04-12T00:49:10.192Z,3.67
2019-04-12T00:51:42.337Z,3.90
2019-04-12T00:54:08.600Z,3.70
2019-04-12T00:56:37.283Z,3.85
2019-04-12T00:59:06.114Z,3.53
2019-04-12T01:01:51.553Z,3.57
2019-04-12T01:04:24.562Z,3.30
2019-04-12T01:06:53.299Z,3.87
2019-04-12T01:09:22.962Z,3.93
2019-04-12T01:11:54.956Z,3.90
2019-04-12T01:14:22.252Z,3.93
2019-04-12T01:16:50.945Z,3.90
2019-04-12T01:19:19.694Z,3.80
2019-04-12T01:21:49.056Z,3.50
2019-04-12T01:24:18.104Z,3.47
2019-04-12T01:26:47.143Z,3.67
2019-04-12T01:29:18.083Z,3.55
2019-04-12T01:31:46.628Z,3.60
2019-04-12T01:34:15.298Z,4.10
2019-04-12T01:36:43.915Z,4.20
2019-04-12T01:39:12.572Z,3.30
2019-04-12T01:41:41.498Z,3.53
2019-04-12T01:44:10.139Z,3.47
2019-04-12T01:46:38.793Z,3.40
2019-04-12T01:49:07.870Z,4.13
2019-04-12T01:51:36.521Z,3.80
2019-04-12T01:54:05.266Z,4.17
2019-04-12T01:56:33.917Z,4.60
2019-04-12T01:59:02.580Z,3.70
2019-04-12T02:01:31.226Z,4.30
2019-04-12T02:03:59.855Z,3.97
2019-04-12T02:06:28.504Z,3.80
2019-04-12T02:08:57.148Z,3.60
2019-04-12T02:11:25.795Z,4.80
2019-04-12T02:13:54.479Z,4.27
2019-04-12T02:16:23.143Z,4.00
2019-04-12T02:18:51.777Z,4.53
2019-04-12T02:21:20.872Z,4.30
2019-04-12T02:23:49.754Z,4.10
2019-04-12T02:26:18.395Z,4.30
2019-04-12T02:28:52.974Z,4.47
2019-04-12T02:31:28.166Z,3.98
2019-04-12T02:33:57.384Z,4.30
2019-04-12T02:36:28.988Z,4.23
2019-04-12T02:38:57.697Z,4.13
2019-04-12T02:41:27.781Z,4.17
2019-04-12T02:43:58.617Z,4.50
2019-04-12T02:46:51.550Z,3.60
2019-04-12T02:49:31.055Z,4.70
2019-04-12T02:52:26.065Z,4.30
2019-04-12T02:55:04.332Z,4.33
2019-04-12T02:58:08.104Z,5.00
2019-04-12T03:00:47.062Z,4.40
2019-04-12T03:03:16.455Z,4.80
2019-04-12T03:05:52.163Z,5.23
2019-04-12T03:08:21.093Z,4.80
2019-04-12T03:10:52.013Z,5.30
2019-04-12T03:13:23.050Z,5.13
2019-04-12T03:15:52.263Z,4.78
2019-04-12T03:18:21.135Z,5.47
2019-04-12T03:20:50.857Z,4.90
2019-04-12T03:23:20.247Z,5.10
2019-04-12T03:25:53.862Z,5.55
2019-04-12T03:28:20.307Z,5.60
2019-04-12T03:30:49.212Z,5.70
2019-04-12T03:33:18.077Z,4.90
2019-04-12T03:35:47.518Z,4.97
2019-04-12T03:38:16.434Z,4.70
2019-04-12T03:40:45.511Z,5.33
2019-04-12T03:43:14.164Z,5.40
2019-04-12T03:45:43.408Z,5.80
2019-04-12T03:48:12.563Z,5.57
2019-04-12T03:50:42.088Z,6.00
2019-04-12T03:53:10.924Z,5.43
2019-04-12T03:55:39.925Z,4.90
2019-04-12T03:58:08.919Z,5.47
2019-04-12T04:00:40.031Z,5.20
2019-04-12T04:03:09.144Z,5.80
2019-04-12T04:05:38.137Z,5.40
2019-04-12T04:08:07.169Z,5.62
2019-04-12T04:10:36.167Z,5.43
2019-04-12T04:13:05.425Z,5.67
2019-04-12T04:15:35.139Z,6.25
2019-04-12T04:18:14.064Z,5.73
2019-04-12T04:21:05.347Z,5.17
2019-04-12T04:24:08.836Z,6.00
2019-04-12T04:26:49.147Z,6.67
2019-04-12T04:29:36.566Z,5.60
2019-04-12T04:32:22.819Z,6.28
2019-04-12T04:34:52.456Z,5.95
2019-04-12T04:37:22.868Z,6.60
2019-04-12T04:39:51.963Z,6.47
2019-04-12T04:42:20.702Z,5.67
2019-04-12T04:44:49.738Z,5.62
2019-04-12T04:47:18.815Z,5.60
2019-04-12T04:49:47.668Z,5.95
2019-04-12T04:52:16.887Z,6.17
2019-04-12T04:54:47.194Z,5.73
2019-04-12T04:57:16.652Z,5.97
2019-04-12T04:59:45.627Z,6.33
2019-04-12T05:02:14.372Z,6.17
2019-04-12T05:04:43.214Z,4.67
2019-04-12T05:07:11.984Z,5.53
2019-04-12T05:09:41.020Z,5.60
2019-04-12T05:12:10.124Z,6.50
2019-04-12T05:14:39.015Z,5.95
2019-04-12T05:17:08.039Z,5.78
2019-04-12T05:19:36.880Z,6.70
2019-04-12T05:22:06.047Z,6.10
2019-04-12T05:24:34.717Z,5.78
2019-04-12T05:27:03.716Z,6.90
2019-04-12T05:29:33.327Z,5.95
2019-04-12T05:32:02.277Z,6.50
2019-04-12T05:34:31.523Z,6.22
2019-04-12T05:37:09.626Z,5.95
2019-04-12T05:39:31.182Z,6.15
2019-04-12T05:41:59.860Z,6.05
2019-04-12T05:44:28.617Z,6.95
2019-04-12T05:47:16.649Z,5.50
2019-04-12T05:49:53.354Z,6.50
2019-04-12T05:52:22.091Z,6.55
2019-04-12T05:54:50.808Z,6.07
2019-04-12T05:57:19.687Z,5.97
2019-04-12T05:59:48.620Z,6.80
2019-04-12T06:02:35.410Z,6.40
2019-04-12T06:05:05.921Z,5.85
2019-04-12T06:07:34.589Z,6.53
2019-04-12T06:10:03.558Z,6.42
2019-04-12T06:12:32.552Z,4.83
2019-04-12T06:15:02.962Z,6.10
2019-04-12T06:17:32.698Z,5.67
2019-04-12T06:20:20.019Z,5.72
2019-04-12T06:22:49.227Z,6.35
2019-04-12T06:25:20.705Z,5.57
2019-04-12T06:27:51.380Z,6.03
2019-04-12T06:30:29.437Z,6.90
2019-04-12T06:32:58.273Z,5.58
2019-04-12T06:35:29.463Z,5.10
2019-04-12T06:37:57.592Z,5.23
2019-04-12T06:40:26.340Z,5.12
2019-04-12T06:42:55.016Z,5.33
2019-04-12T06:45:23.750Z,5.03
2019-04-12T06:47:52.432Z,5.53
2019-04-12T06:50:28.239Z,5.45
2019-04-12T06:52:57.075Z,5.70
2019-04-12T06:55:27.358Z,5.10
2019-04-12T06:57:56.039Z,5.40
2019-04-12T07:00:43.847Z,4.90
2019-04-12T07:03:31.065Z,4.77
2019-04-12T07:05:59.835Z,5.05
2019-04-12T07:08:28.488Z,4.60
2019-04-12T07:10:57.151Z,5.80
2019-04-12T07:13:25.827Z,4.65
2019-04-12T07:15:54.517Z,5.35
2019-04-12T07:18:23.204Z,5.00
2019-04-12T07:20:52.116Z,4.40
2019-04-12T07:23:20.845Z,5.10
2019-04-12T07:25:49.800Z,5.12
2019-04-12T07:28:18.477Z,5.37
2019-04-12T07:30:56.226Z,5.35
2019-04-12T07:33:17.732Z,5.70
2019-04-12T07:35:46.372Z,5.40
2019-04-12T07:38:15.522Z,5.47
2019-04-12T07:40:44.192Z,5.55
2019-04-12T07:43:12.843Z,5.67
2019-04-12T07:45:41.473Z,5.40
2019-04-12T07:48:10.128Z,6.33
2019-04-12T07:50:58.193Z,6.20
2019-04-12T07:53:30.239Z,6.40
2019-04-12T07:56:04.630Z,6.47
2019-04-12T07:58:41.864Z,5.80
2019-04-12T08:01:32.721Z,5.90
2019-04-12T08:04:19.529Z,6.37
2019-04-12T08:07:00.600Z,5.70
2019-04-12T08:09:29.323Z,6.40
2019-04-12T08:11:57.988Z,5.73
2019-04-12T08:14:26.685Z,5.63
2019-04-12T08:16:55.345Z,5.23
2019-04-12T08:19:24.064Z,5.03
2019-04-12T08:21:52.792Z,5.05
2019-04-12T08:24:21.460Z,5.22
2019-04-12T08:26:50.110Z,5.30
2019-04-12T08:29:18.755Z,5.33
2019-04-12T08:31:47.481Z,5.17
2019-04-12T08:34:16.135Z,5.10
2019-04-12T08:36:44.779Z,6.03
2019-04-12T08:39:13.430Z,6.57
2019-04-12T08:41:42.399Z,5.60
2019-04-12T08:44:11.087Z,5.70
2019-04-12T08:46:39.726Z,5.80
2019-04-12T08:49:08.379Z,6.30
2019-04-12T08:51:37.429Z,6.20
2019-04-12T08:54:06.109Z,6.10
2019-04-12T08:56:35.025Z,4.80
2019-04-12T08:59:03.749Z,5.00
2019-04-12T09:01:32.551Z,5.20
2019-04-12T09:04:01.254Z,5.10
2019-04-12T09:06:30.076Z,5.83
2019-04-12T09:09:15.422Z,5.13
2019-04-12T09:11:44.372Z,6.20
2019-04-12T09:14:13.163Z,5.27
2019-04-12T09:16:41.893Z,5.00
2019-04-12T09:19:20.512Z,4.97
2019-04-12T09:21:57.923Z,5.27
2019-04-12T09:24:31.412Z,4.30
2019-04-12T09:27:00.221Z,4.47
2019-04-12T09:29:29.492Z,4.57
2019-04-12T09:31:58.528Z,4.47
2019-04-12T09:34:27.165Z,4.33
2019-04-12T09:36:55.814Z,5.20
2019-04-12T09:39:26.222Z,4.50
2019-04-12T09:41:55.120Z,3.93
2019-04-12T09:44:23.796Z,4.60
2019-04-12T09:46:52.466Z,3.87
2019-04-12T09:49:21.551Z,4.80
2019-04-12T09:51:50.358Z,4.80
2019-04-12T09:54:19.256Z,4.83
2019-04-12T09:56:47.933Z,4.70
2019-04-12T09:59:16.562Z,3.97
2019-04-12T10:01:45.215Z,4.73
2019-04-12T10:04:14.181Z,5.10
2019-04-12T10:06:42.853Z,4.83
2019-04-12T10:09:14.199Z,5.17
2019-04-12T10:11:41.990Z,4.97
2019-04-12T10:14:10.639Z,5.80
2019-04-12T10:16:39.316Z,5.00
2019-04-12T10:19:08.047Z,4.20
2019-04-12T10:21:36.763Z,4.60
2019-04-12T10:24:05.406Z,4.10
2019-04-12T10:26:34.335Z,4.70
2019-04-12T10:29:03.872Z,4.20
2019-04-12T10:31:32.639Z,4.73
2019-04-12T10:34:02.114Z,4.67
2019-04-12T10:36:30.812Z,4.50
2019-04-12T10:39:07.990Z,4.50
2019-04-12T10:41:36.741Z,5.53
2019-04-12T10:44:20.973Z,5.40
2019-04-12T10:46:52.340Z,5.33
2019-04-12T10:49:35.860Z,4.87
2019-04-12T10:52:22.956Z,5.10
2019-04-12T10:54:59.952Z,5.03
2019-04-12T10:57:28.869Z,5.00
2019-04-12T10:59:57.738Z,4.40
2019-04-12T11:02:27.316Z,4.60
2019-04-12T11:04:55.959Z,4.77
2019-04-12T11:07:24.610Z,9.00
2019-04-12T11:09:53.284Z,6.33
2019-04-12T11:12:21.976Z,4.53
2019-04-12T11:14:50.653Z,5.13
2019-04-12T11:17:19.345Z,4.40
2019-04-12T11:19:48.016Z,4.37
2019-04-12T11:22:16.683Z,4.47
2019-04-12T11:24:45.668Z,5.00
2019-04-12T11:27:14.338Z,5.10
2019-04-12T11:29:42.992Z,5.13
2019-04-12T11:32:11.633Z,4.87
2019-04-12T11:34:40.519Z,4.37
2019-04-12T11:37:09.180Z,4.90
2019-04-12T11:39:37.885Z,4.20
2019-04-12T11:42:06.611Z,4.33
2019-04-12T11:44:35.284Z,3.80
2019-04-12T11:47:03.942Z,4.37
2019-04-12T11:49:32.942Z,4.90
2019-04-12T11:52:01.560Z,4.43
2019-04-12T11:54:30.221Z,3.93
2019-04-12T11:56:58.887Z,4.17
2019-04-12T11:59:29.769Z,4.20
2019-04-12T12:02:18.721Z,4.73
2019-04-12T12:04:57.957Z,4.93
2019-04-12T12:07:50.218Z,4.60
2019-04-12T12:10:45.201Z,5.20
2019-04-12T12:13:24.246Z,5.07
2019-04-12T12:16:15.241Z,4.53
2019-04-12T12:18:47.009Z,4.73
2019-04-12T12:21:16.031Z,4.80
2019-04-12T12:23:44.709Z,5.30
2019-04-12T12:26:13.391Z,4.10
2019-04-12T12:28:42.302Z,4.77
2019-04-12T12:31:10.956Z,4.97
2019-04-12T12:33:39.600Z,4.43
2019-04-12T12:36:08.660Z,4.87
2019-04-12T12:38:37.316Z,4.37
2019-04-12T12:41:05.964Z,5.23
2019-04-12T12:43:34.639Z,4.20
2019-04-12T12:46:03.343Z,4.17
2019-04-12T12:48:31.993Z,3.80
2019-04-12T12:51:00.947Z,4.73
2019-04-12T12:53:29.741Z,4.27
2019-04-12T12:55:58.670Z,4.20
2019-04-12T12:58:27.322Z,4.03
2019-04-12T13:00:55.958Z,4.53
2019-04-12T13:03:24.668Z,4.40
2019-04-12T13:05:53.299Z,4.40
2019-04-12T13:08:21.944Z,3.80
2019-04-12T13:10:50.621Z,5.20
2019-04-12T13:13:19.271Z,4.67
2019-04-12T13:15:47.956Z,6.10
2019-04-12T13:18:16.628Z,4.73
2019-04-12T13:20:45.376Z,4.67
2019-04-12T13:23:14.064Z,4.30
2019-04-12T13:25:42.747Z,4.20
2019-04-12T13:28:11.405Z,4.60
2019-04-12T13:30:53.028Z,4.80
2019-04-12T13:33:38.263Z,4.67
2019-04-12T13:36:25.584Z,4.03
2019-04-12T13:38:58.636Z,3.80
2019-04-12T13:41:27.296Z,4.57
2019-04-12T13:43:55.980Z,4.00
2019-04-12T13:46:24.728Z,4.30
2019-04-12T13:48:53.745Z,4.83
2019-04-12T13:51:22.439Z,4.70
2019-04-12T13:53:51.108Z,3.90
2019-04-12T13:56:19.834Z,4.70
2019-04-12T13:58:48.511Z,4.80
2019-04-12T14:01:17.197Z,4.00
2019-04-12T14:03:46.244Z,4.83
2019-04-12T14:06:14.967Z,4.67
2019-04-12T14:08:43.846Z,4.70
2019-04-12T14:11:12.495Z,4.80
2019-04-12T14:13:41.506Z,4.50
2019-04-12T14:16:10.215Z,4.63
2019-04-12T14:18:38.899Z,4.73
2019-04-12T14:21:07.565Z,5.07
2019-04-12T14:23:36.239Z,4.90
2019-04-12T14:26:04.895Z,4.97
2019-04-12T14:28:33.617Z,6.33
2019-04-12T14:31:13.757Z,5.90
2019-04-12T14:34:00.720Z,5.87
2019-04-12T14:36:48.940Z,5.83
2019-04-12T14:39:19.157Z,6.50
2019-04-12T14:41:48.169Z,5.80
2019-04-12T14:44:34.956Z,6.53
2019-04-12T14:47:08.128Z,5.40
2019-04-12T14:49:37.343Z,6.17
2019-04-12T14:52:06.060Z,6.57
2019-04-12T14:54:34.726Z,6.17
2019-04-12T14:57:03.481Z,6.10
2019-04-12T14:59:32.121Z,5.27
2019-04-12T15:02:00.982Z,8.00
2019-04-12T15:04:29.906Z,7.43
2019-04-12T15:06:58.544Z,5.37
2019-04-12T15:09:27.184Z,4.80
2019-04-12T15:11:55.839Z,5.60
2019-04-12T15:14:24.504Z,4.87
2019-04-12T15:16:53.696Z,6.00
2019-04-12T15:19:22.327Z,4.10
2019-04-12T15:21:51.000Z,5.37
2019-04-12T15:24:19.652Z,5.00
2019-04-12T15:26:48.303Z,5.93
2019-04-12T15:29:16.963Z,5.00
2019-04-12T15:31:45.698Z,6.60
2019-04-12T15:34:14.336Z,6.00
2019-04-12T15:36:43.004Z,5.57
2019-04-12T15:39:11.732Z,6.47
2019-04-12T15:41:40.409Z,6.37
2019-04-12T15:44:09.135Z,5.87
2019-04-12T15:46:37.805Z,5.50
2019-04-12T15:49:06.456Z,5.03
2019-04-12T15:51:35.126Z,5.33
2019-04-12T15:54:03.933Z,5.43
2019-04-12T15:56:32.693Z,5.30
2019-04-12T15:59:01.357Z,5.93
2019-04-12T16:01:30.076Z,6.40
2019-04-12T16:04:00.071Z,5.90
2019-04-12T16:06:29.376Z,4.90
2019-04-12T16:09:17.006Z,5.63
2019-04-12T16:12:06.025Z,6.23
2019-04-12T16:14:44.440Z,6.27
2019-04-12T16:17:40.365Z,6.27
2019-04-12T16:20:09.312Z,8.17
2019-04-12T16:22:38.008Z,8.10
2019-04-12T16:25:06.782Z,8.40
2019-04-12T16:27:38.967Z,8.13
2019-04-12T16:30:35.160Z,7.60
2019-04-12T16:33:10.290Z,7.00
2019-04-12T16:35:47.250Z,6.83
2019-04-12T16:38:19.526Z,5.83
2019-04-12T16:40:48.165Z,6.67
2019-04-12T16:43:16.826Z,6.00
2019-04-12T16:45:45.776Z,5.83
2019-04-12T16:48:14.541Z,6.47
2019-04-12T16:50:43.508Z,5.50
2019-04-12T16:53:12.237Z,6.07
2019-04-12T16:55:40.967Z,6.20
2019-04-12T16:58:09.624Z,5.80
2019-04-12T17:00:39.363Z,5.63
2019-04-12T17:03:08.268Z,6.40
2019-04-12T17:05:37.527Z,6.17
2019-04-12T17:08:06.969Z,6.53
2019-04-12T17:10:35.750Z,6.60
2019-04-12T17:13:04.740Z,6.80
2019-04-12T17:15:33.756Z,6.47
2019-04-12T17:18:02.735Z,7.40
2019-04-12T17:20:31.457Z,6.90
2019-04-12T17:23:00.387Z,6.00
2019-04-12T17:25:29.048Z,6.20
2019-04-12T17:27:57.725Z,6.03
2019-04-12T17:30:26.383Z,6.50
2019-04-12T17:32:55.053Z,6.87
2019-04-12T17:35:23.687Z,6.17
2019-04-12T17:37:52.436Z,6.90
2019-04-12T17:40:21.225Z,7.83
2019-04-12T17:42:49.972Z,7.50
2019-04-12T17:45:18.824Z,7.53
2019-04-12T17:47:47.499Z,9.17
2019-04-12T17:50:42.936Z,7.87
2019-04-12T17:53:21.572Z,8.30
2019-04-12T17:55:53.518Z,8.03
2019-04-12T17:58:22.295Z,8.67
2019-04-12T18:01:03.061Z,8.40
2019-04-12T18:03:31.720Z,8.83
2019-04-12T18:06:00.394Z,8.50
2019-04-12T18:08:29.077Z,10.47
2019-04-12T18:10:57.765Z,11.43
2019-04-12T18:13:26.499Z,10.63
2019-04-12T18:15:55.196Z,11.40
2019-04-12T18:18:23.836Z,10.00
2019-04-12T18:20:52.535Z,10.07
2019-04-12T18:23:21.229Z,10.00
2019-04-12T18:25:49.866Z,10.80
2019-04-12T18:28:18.499Z,8.10
2019-04-12T18:30:47.455Z,8.47
2019-04-12T18:33:16.116Z,7.60
2019-04-12T18:35:44.771Z,8.03
2019-04-12T18:38:13.494Z,7.70
2019-04-12T18:40:42.162Z,6.73
2019-04-12T18:43:10.810Z,7.40
2019-04-12T18:45:39.499Z,7.47
2019-04-12T18:48:08.159Z,8.17
2019-04-12T18:50:36.866Z,8.13
2019-04-12T18:53:05.505Z,8.50
2019-04-12T18:55:34.187Z,8.23
2019-04-12T18:58:02.888Z,8.87
2019-04-12T19:00:31.629Z,10.37
2019-04-12T19:03:00.279Z,10.27
2019-04-12T19:05:29.075Z,11.00
2019-04-12T19:07:57.804Z,12.00
2019-04-12T19:10:26.486Z,10.57
2019-04-12T19:12:55.121Z,8.20
2019-04-12T19:15:25.616Z,9.47
2019-04-12T19:17:54.276Z,8.93
2019-04-12T19:20:25.431Z,9.40
2019-04-12T19:22:54.339Z,7.93
2019-04-12T19:25:23.024Z,8.20
2019-04-12T19:27:51.757Z,9.80
2019-04-12T19:30:23.169Z,9.40
2019-04-12T19:33:09.673Z,8.60
2019-04-12T19:35:44.276Z,8.23
2019-04-12T19:38:37.956Z,7.93
2019-04-12T19:41:08.248Z,8.43
2019-04-12T19:43:36.938Z,8.27
2019-04-12T19:46:05.608Z,10.17
2019-04-12T19:48:34.247Z,10.83
2019-04-12T19:51:02.945Z,9.03
2019-04-12T19:53:31.613Z,10.90
2019-04-12T19:56:00.275Z,9.20
2019-04-12T19:58:28.920Z,10.87
2019-04-12T20:00:57.861Z,8.17
2019-04-12T20:03:26.763Z,9.67
2019-04-12T20:05:55.467Z,9.00
2019-04-12T20:08:24.103Z,7.90
2019-04-12T20:10:52.776Z,6.53
2019-04-12T20:13:21.450Z,7.53
2019-04-12T20:15:50.109Z,6.30
2019-04-12T20:18:18.753Z,8.23
2019-04-12T20:20:47.497Z,9.00
2019-04-12T20:23:16.205Z,11.80
2019-04-12T20:25:44.876Z,9.37
2019-04-12T20:28:13.532Z,9.30
2019-04-12T20:30:42.175Z,7.90
2019-04-12T20:33:10.824Z,8.87
2019-04-12T20:35:39.577Z,9.10
2019-04-12T20:38:08.340Z,9.93
2019-04-12T20:40:36.971Z,12.13
2019-04-12T20:43:05.650Z,8.40
2019-04-12T20:45:34.309Z,7.60
2019-04-12T20:48:03.032Z,10.70
2019-04-12T20:50:31.680Z,7.80
2019-04-12T20:53:00.425Z,7.90
2019-04-12T20:55:29.054Z,11.00
2019-04-12T20:57:57.703Z,11.00
2019-04-12T21:00:26.323Z,9.50
2019-04-12T21:02:54.987Z,8.30
2019-04-12T21:05:23.726Z,8.70
2019-04-12T21:07:52.482Z,8.83
2019-04-12T21:10:21.473Z,9.50
2019-04-12T21:12:50.502Z,10.17
2019-04-12T21:15:19.155Z,9.17
2019-04-12T21:17:48.099Z,8.03
2019-04-12T21:20:17.027Z,7.45
2019-04-12T21:22:45.784Z,8.67
2019-04-12T21:25:14.465Z,8.33
2019-04-12T21:27:43.187Z,7.73
2019-04-12T21:30:24.529Z,7.33
2019-04-12T21:32:42.467Z,7.28
2019-04-12T21:35:17.649Z,7.12
2019-04-12T21:37:41.612Z,6.72
2019-04-12T21:40:10.435Z,7.03
2019-04-12T21:42:39.464Z,7.33
2019-04-12T21:45:08.268Z,8.18
2019-04-12T21:47:36.968Z,7.85
2019-04-12T21:50:05.981Z,7.95
2019-04-12T21:52:34.962Z,8.05
2019-04-12T21:55:03.917Z,7.05
2019-04-12T21:57:32.975Z,6.78
2019-04-12T22:00:01.820Z,7.92
2019-04-12T22:02:30.625Z,7.60
2019-04-12T22:04:59.800Z,8.03
2019-04-12T22:07:28.472Z,8.08
2019-04-12T22:09:57.148Z,7.10
2019-04-12T22:12:25.800Z,6.80
2019-04-12T22:14:54.452Z,6.17
2019-04-12T22:17:23.355Z,6.75
2019-04-12T22:19:52.012Z,7.13
2019-04-12T22:22:20.713Z,7.40
2019-04-12T22:24:49.378Z,8.13
2019-04-12T22:27:18.037Z,8.90
2019-04-12T22:29:46.724Z,9.60
2019-04-12T22:32:17.576Z,9.40
2019-04-12T22:34:46.226Z,8.20
2019-04-12T22:37:14.909Z,8.73
2019-04-12T22:39:43.600Z,8.50
2019-04-12T22:42:12.342Z,8.20
2019-04-12T22:44:41.036Z,8.30
2019-04-12T22:47:09.684Z,7.83
2019-04-12T22:49:39.224Z,7.83
2019-04-12T22:52:08.163Z,9.40
2019-04-12T22:54:36.823Z,8.60
2019-04-12T22:57:05.500Z,8.80
2019-04-12T22:59:34.172Z,8.40
2019-04-12T23:02:04.542Z,8.30
2019-04-12T23:04:33.581Z,8.25
2019-04-12T23:07:02.229Z,8.65
2019-04-12T23:09:30.907Z,9.50
2019-04-12T23:11:59.903Z,9.33
2019-04-12T23:14:28.559Z,7.92
2019-04-12T23:16:57.196Z,8.20
2019-04-12T23:19:25.839Z,8.30
2019-04-12T23:21:54.503Z,8.57
2019-04-12T23:24:23.149Z,9.10
2019-04-12T23:26:51.794Z,8.80
2019-04-12T23:29:20.457Z,8.07
2019-04-12T23:31:53.272Z,8.57
2019-04-12T23:34:36.186Z,8.07
2019-04-12T23:37:04.839Z,7.45
2019-04-12T23:39:33.560Z,7.50
2019-04-12T23:42:02.212Z,7.75
2019-04-12T23:44:30.877Z,8.43
2019-04-12T23:46:59.854Z,8.90
2019-04-12T23:49:28.509Z,8.60
2019-04-12T23:51:57.221Z,8.73
2019-04-12T23:54:25.884Z,8.57
2019-04-12T23:56:54.520Z,9.27
2019-04-12T23:59:23.486Z,8.87
